Time;durP1;ratioP1;P1;durP2;ratioP2;P2;SDS_P1;SDS_P2;PMS_P1;PMS_P2;Temp;Humidity;BMP_temperature;BMP_pressure;BME280_temperature;BME280_humidity;BME280_pressure;Samples;Min_cycle;Max_cycle;Signal;HPM_P1;HPM_P2
2023/04/24 00:01:00;;;;;;;1.50;0.50;;;13.10;99.90;;;;;;5052108;28;20132;-41
2023/04/24 00:03:27;;;;;;;2.33;0.57;;;13.10;99.90;;;;;;5052087;28;20028;-43
2023/04/24 00:05:56;;;;;;;1.27;0.47;;;13.10;99.90;;;;;;5051824;28;20021;-43
2023/04/24 00:08:23;;;;;;;1.10;0.50;;;13.10;99.90;;;;;;5052049;28;20498;-43
2023/04/24 00:10:49;;;;;;;1.73;0.50;;;13.10;99.90;;;;;;5052083;28;20071;-45
2023/04/24 00:13:14;;;;;;;0.98;0.50;;;13.10;99.90;;;;;;5051916;28;20029;-41
2023/04/24 00:15:40;;;;;;;0.95;0.60;;;13.10;99.90;;;;;;5051549;28;20405;-44
2023/04/24 00:18:06;;;;;;;1.67;0.57;;;13.10;99.90;;;;;;5051478;28;20028;-44
2023/04/24 00:20:33;;;;;;;0.40;0.40;;;13.10;99.90;;;;;;5051820;28;20150;-45
2023/04/24 00:22:59;;;;;;;0.80;0.60;;;13.10;99.90;;;;;;5051818;28;20026;-43
2023/04/24 00:25:24;;;;;;;3.38;0.60;;;13.10;99.90;;;;;;5051570;28;20033;-45
2023/04/24 00:27:50;;;;;;;1.27;0.60;;;13.10;99.90;;;;;;5051221;28;20025;-44
2023/04/24 00:30:15;;;;;;;2.97;0.60;;;13.10;99.90;;;;;;5051517;28;20372;-45
2023/04/24 00:32:41;;;;;;;2.08;0.60;;;13.10;99.90;;;;;;5051591;28;20493;-44
2023/04/24 00:35:07;;;;;;;1.83;0.50;;;13.10;99.90;;;;;;5053109;28;20029;-43
2023/04/24 00:37:32;;;;;;;1.10;0.50;;;13.10;99.90;;;;;;5053113;28;20049;-45
2023/04/24 00:39:58;;;;;;;1.25;0.45;;;13.10;99.90;;;;;;5050694;28;20400;-43
2023/04/24 00:42:25;;;;;;;2.55;0.60;;;13.10;99.90;;;;;;5051483;28;20079;-43
2023/04/24 00:44:51;;;;;;;1.35;0.57;;;13.10;99.90;;;;;;5049958;28;20074;-44
2023/04/24 00:47:18;;;;;;;1.10;0.50;;;13.00;99.90;;;;;;5050840;28;20025;-44
2023/04/24 00:49:44;;;;;;;2.17;0.38;;;13.10;99.90;;;;;;5051295;28;20493;-44
2023/04/24 00:52:10;;;;;;;1.40;0.60;;;13.00;99.90;;;;;;5051308;28;20099;-43
2023/04/24 00:54:36;;;;;;;1.98;0.60;;;13.10;99.90;;;;;;5052489;28;20028;-43
2023/04/24 00:57:05;;;;;;;0.65;0.43;;;13.00;99.90;;;;;;5050718;28;20033;-45
2023/04/24 00:59:31;;;;;;;1.17;0.50;;;13.10;99.90;;;;;;5051199;28;20637;-44
2023/04/24 01:01:58;;;;;;;2.10;0.60;;;13.00;99.90;;;;;;5050978;28;20044;-43
2023/04/24 01:04:24;;;;;;;1.27;0.50;;;13.00;99.90;;;;;;5050997;28;20440;-44
2023/04/24 01:06:50;;;;;;;2.00;0.68;;;13.00;99.90;;;;;;5050507;28;20067;-44
2023/04/24 01:09:17;;;;;;;3.13;0.65;;;13.00;99.90;;;;;;5051039;28;20033;-44
2023/04/24 01:11:43;;;;;;;2.15;0.85;;;13.00;99.90;;;;;;5050930;28;20051;-44
2023/04/24 01:14:09;;;;;;;1.30;0.50;;;13.00;99.90;;;;;;5050936;28;20479;-43
2023/04/24 01:16:38;;;;;;;0.70;0.40;;;13.00;99.90;;;;;;5050504;28;20033;-44
2023/04/24 01:19:05;;;;;;;0.77;0.50;;;13.00;99.90;;;;;;5050909;28;20048;-44
2023/04/24 01:21:34;;;;;;;3.38;0.75;;;13.00;99.90;;;;;;5051125;28;20051;-45
2023/04/24 01:24:00;;;;;;;1.98;0.60;;;13.00;99.90;;;;;;5050903;28;20021;-43
2023/04/24 01:26:25;;;;;;;2.38;0.60;;;13.00;99.90;;;;;;5050132;28;20029;-43
2023/04/24 01:28:52;;;;;;;1.85;0.50;;;13.00;99.90;;;;;;5050935;28;20032;-43
2023/04/24 01:31:18;;;;;;;1.95;0.75;;;13.00;99.90;;;;;;5050840;28;20021;-43
2023/04/24 01:33:43;;;;;;;1.17;0.50;;;13.00;99.90;;;;;;5050824;28;20490;-45
2023/04/24 01:36:11;;;;;;;0.77;0.40;;;13.00;99.90;;;;;;5050291;28;20025;-44
2023/04/24 01:38:36;;;;;;;1.27;0.70;;;13.00;99.90;;;;;;5050719;28;20037;-44
2023/04/24 01:41:02;;;;;;;1.75;0.60;;;13.00;99.90;;;;;;5050789;28;20037;-43
2023/04/24 01:43:29;;;;;;;1.23;0.60;;;13.00;99.90;;;;;;5051292;28;20025;-43
2023/04/24 01:45:54;;;;;;;0.40;0.30;;;13.00;99.90;;;;;;5050161;28;20036;-43
2023/04/24 01:48:20;;;;;;;0.93;0.30;;;13.00;99.90;;;;;;5050759;28;20022;-44
2023/04/24 01:50:45;;;;;;;0.98;0.52;;;13.00;99.90;;;;;;5050645;28;20510;-44
2023/04/24 01:53:12;;;;;;;1.25;0.50;;;13.00;99.90;;;;;;5054298;28;20017;-43
2023/04/24 01:55:37;;;;;;;1.30;0.52;;;13.00;99.90;;;;;;5056100;28;20070;-43
2023/04/24 01:58:03;;;;;;;3.33;0.57;;;13.00;99.90;;;;;;5055089;28;20033;-43
2023/04/24 02:00:29;;;;;;;0.90;0.40;;;13.00;99.90;;;;;;5054576;28;20040;-43
2023/04/24 02:02:54;;;;;;;0.93;0.60;;;13.00;99.90;;;;;;5054362;28;20458;-42
2023/04/24 02:05:20;;;;;;;0.90;0.40;;;13.00;99.90;;;;;;5054255;28;20030;-45
2023/04/24 02:07:46;;;;;;;1.00;0.45;;;12.90;99.90;;;;;;5053937;28;20085;-43
2023/04/24 02:10:12;;;;;;;2.92;0.82;;;13.00;99.90;;;;;;5054202;28;20399;-43
2023/04/24 02:12:37;;;;;;;1.50;0.60;;;13.00;99.90;;;;;;5054201;28;20024;-44
2023/04/24 02:15:03;;;;;;;1.02;0.57;;;13.00;99.90;;;;;;5054144;28;20372;-43
2023/04/24 02:17:30;;;;;;;1.92;0.63;;;13.00;99.90;;;;;;5053552;28;20106;-45
2023/04/24 02:19:56;;;;;;;0.93;0.60;;;13.00;99.90;;;;;;5055070;28;20041;-43
2023/04/24 02:22:21;;;;;;;1.60;0.50;;;13.00;99.90;;;;;;5054049;28;20044;-40
2023/04/24 02:24:47;;;;;;;1.05;0.50;;;13.00;99.90;;;;;;5053878;28;20032;-44
2023/04/24 02:27:13;;;;;;;0.93;0.40;;;13.00;99.90;;;;;;5054502;28;20025;-43
2023/04/24 02:29:38;;;;;;;1.25;0.40;;;13.00;99.90;;;;;;5054219;28;20029;-45
2023/04/24 02:32:04;;;;;;;1.15;0.50;;;13.00;99.90;;;;;;5053888;28;20233;-43
2023/04/24 02:34:30;;;;;;;1.65;0.40;;;13.00;99.90;;;;;;5055007;28;20071;-45
2023/04/24 02:36:55;;;;;;;1.85;0.57;;;12.90;99.90;;;;;;5054094;28;20053;-43
2023/04/24 02:39:21;;;;;;;1.27;0.50;;;12.90;99.90;;;;;;5053586;28;20039;-43
2023/04/24 02:41:47;;;;;;;3.13;0.40;;;12.90;99.90;;;;;;5054482;28;20032;-43
2023/04/24 02:44:12;;;;;;;2.25;0.43;;;13.00;99.90;;;;;;5053652;28;20436;-43
2023/04/24 02:46:38;;;;;;;1.55;0.68;;;13.00;99.90;;;;;;5053108;28;20387;-40
2023/04/24 02:49:04;;;;;;;0.57;0.30;;;13.00;99.90;;;;;;5053604;28;20021;-44
2023/04/24 02:51:29;;;;;;;2.85;0.70;;;12.90;99.90;;;;;;5053555;28;20433;-44
2023/04/24 02:53:55;;;;;;;1.55;0.77;;;13.00;99.90;;;;;;5053386;28;20479;-42
2023/04/24 02:56:21;;;;;;;0.90;0.43;;;12.90;99.90;;;;;;5053142;28;20086;-44
2023/04/24 02:58:46;;;;;;;1.38;0.40;;;12.90;99.90;;;;;;5053520;28;20497;-41
2023/04/24 03:01:12;;;;;;;1.77;0.50;;;12.90;99.90;;;;;;5053365;28;20021;-42
2023/04/24 03:03:39;;;;;;;1.35;0.52;;;13.00;99.90;;;;;;5052422;28;20040;-43
2023/04/24 03:06:05;;;;;;;1.60;0.55;;;13.00;99.90;;;;;;5051306;28;20036;-44
2023/04/24 03:08:31;;;;;;;2.25;0.73;;;12.90;99.90;;;;;;5053105;28;20451;-39
2023/04/24 03:10:57;;;;;;;2.33;0.82;;;13.00;99.90;;;;;;5053272;28;20029;-44
2023/04/24 03:13:23;;;;;;;2.42;0.70;;;13.00;99.90;;;;;;5053398;28;20403;-45
2023/04/24 03:15:48;;;;;;;1.05;0.50;;;13.00;99.90;;;;;;5053294;28;20499;-43
2023/04/24 03:18:14;;;;;;;0.60;0.50;;;13.00;99.90;;;;;;5052962;28;20032;-44
2023/04/24 03:20:40;;;;;;;1.88;0.77;;;12.90;99.90;;;;;;5053288;28;20162;-44
2023/04/24 03:23:05;;;;;;;0.90;0.57;;;12.90;99.90;;;;;;5052799;28;20025;-44
2023/04/24 03:25:31;;;;;;;1.35;0.55;;;12.90;99.90;;;;;;5052702;28;20028;-44
2023/04/24 03:27:57;;;;;;;1.23;0.50;;;12.90;99.90;;;;;;5052396;28;20387;-44
2023/04/24 03:30:23;;;;;;;3.15;1.45;;;12.90;99.90;;;;;;5054151;28;20036;-41
2023/04/24 03:32:48;;;;;;;2.97;0.63;;;12.90;99.90;;;;;;5053092;28;20029;-44
2023/04/24 03:35:14;;;;;;;3.83;0.70;;;12.90;99.90;;;;;;5052686;28;20418;-45
2023/04/24 03:37:39;;;;;;;1.70;0.68;;;12.90;99.90;;;;;;5051998;28;20025;-44
2023/04/24 03:40:06;;;;;;;0.85;0.50;;;12.90;99.90;;;;;;5052559;28;20025;-43
2023/04/24 03:42:32;;;;;;;1.25;0.50;;;12.90;99.90;;;;;;5053036;28;20040;-41
2023/04/24 03:44:58;;;;;;;0.63;0.50;;;12.90;99.90;;;;;;5052558;28;20491;-43
2023/04/24 03:47:23;;;;;;;1.27;0.60;;;12.90;99.90;;;;;;5051954;28;20032;-45
2023/04/24 03:49:49;;;;;;;1.13;0.50;;;12.90;99.90;;;;;;5052444;28;20036;-44
2023/04/24 03:52:15;;;;;;;1.30;0.50;;;12.90;99.90;;;;;;5052321;28;20025;-44
2023/04/24 03:54:41;;;;;;;2.50;0.60;;;12.90;99.90;;;;;;5052684;28;20099;-43
2023/04/24 03:57:06;;;;;;;2.28;0.63;;;12.90;99.90;;;;;;5051806;28;20479;-44
2023/04/24 03:59:32;;;;;;;1.38;0.70;;;12.90;99.90;;;;;;5052369;28;20555;-44
2023/04/24 04:01:58;;;;;;;1.00;0.40;;;12.90;99.90;;;;;;5052157;28;20036;-44
2023/04/24 04:04:23;;;;;;;2.17;0.77;;;12.90;99.90;;;;;;5052129;28;20112;-45
2023/04/24 04:06:49;;;;;;;1.88;0.75;;;12.90;99.90;;;;;;5051550;28;20492;-45
2023/04/24 04:09:15;;;;;;;2.28;0.60;;;12.90;99.90;;;;;;5052087;28;20060;-43
2023/04/24 04:11:40;;;;;;;2.60;0.55;;;12.90;99.90;;;;;;5052333;28;20037;-43
2023/04/24 04:14:06;;;;;;;1.35;0.40;;;12.90;99.90;;;;;;5051938;28;20025;-44
2023/04/24 04:16:32;;;;;;;0.95;0.40;;;12.90;99.90;;;;;;5051491;28;20028;-43
2023/04/24 04:18:58;;;;;;;2.30;0.70;;;12.80;99.90;;;;;;5052037;28;20029;-45
2023/04/24 04:21:24;;;;;;;3.33;0.73;;;12.80;99.90;;;;;;5052224;28;20497;-39
2023/04/24 04:23:49;;;;;;;2.65;0.70;;;12.90;99.90;;;;;;5052998;28;20036;-43
2023/04/24 04:26:15;;;;;;;1.23;0.40;;;12.90;99.90;;;;;;5052041;28;20033;-44
2023/04/24 04:28:41;;;;;;;2.83;0.80;;;12.90;99.90;;;;;;5052238;28;20025;-44
2023/04/24 04:31:07;;;;;;;1.73;0.68;;;12.90;99.90;;;;;;5051693;28;20025;-43
2023/04/24 04:33:33;;;;;;;2.33;0.45;;;12.90;99.90;;;;;;5051884;28;20044;-42
2023/04/24 04:35:59;;;;;;;2.33;0.60;;;12.90;99.90;;;;;;5052425;28;20102;-44
2023/04/24 04:38:29;;;;;;;5.05;0.90;;;12.90;99.90;;;;;;5052120;28;20025;-41
2023/04/24 04:40:59;;;;;;;1.88;0.80;;;12.90;99.90;;;;;;5051505;28;20024;-44
2023/04/24 04:43:25;;;;;;;1.63;0.80;;;12.80;99.90;;;;;;5051544;28;20446;-43
2023/04/24 04:45:54;;;;;;;1.77;0.70;;;12.90;99.90;;;;;;5050954;28;20017;-44
2023/04/24 04:48:20;;;;;;;1.35;0.70;;;12.90;99.90;;;;;;5051348;28;20479;-40
2023/04/24 04:50:45;;;;;;;1.35;0.90;;;12.90;99.90;;;;;;5051496;28;20087;-44
2023/04/24 04:53:11;;;;;;;2.17;0.65;;;12.80;99.90;;;;;;5051485;28;20478;-44
2023/04/24 04:55:37;;;;;;;1.23;0.68;;;12.80;99.90;;;;;;5051542;28;20426;-43
2023/04/24 04:58:03;;;;;;;2.38;0.73;;;12.80;99.90;;;;;;5050822;28;20039;-43
2023/04/24 05:00:33;;;;;;;1.40;0.80;;;12.80;99.90;;;;;;5051324;28;20373;-44
2023/04/24 05:02:59;;;;;;;4.20;0.70;;;12.80;99.90;;;;;;5050963;28;20061;-44
2023/04/24 05:05:25;;;;;;;1.25;0.70;;;12.80;99.90;;;;;;5051784;28;20056;-43
2023/04/24 05:07:50;;;;;;;1.55;0.73;;;12.80;99.90;;;;;;5050866;28;20013;-42
2023/04/24 05:10:16;;;;;;;2.70;0.90;;;12.80;99.90;;;;;;5051402;28;20078;-45
2023/04/24 05:12:41;;;;;;;3.13;0.90;;;12.80;99.90;;;;;;5051052;28;20035;-43
2023/04/24 05:15:07;;;;;;;1.20;0.80;;;12.80;99.90;;;;;;5049709;28;20100;-43
2023/04/24 05:17:33;;;;;;;2.88;1.08;;;12.80;99.90;;;;;;5050415;28;20442;-44
2023/04/24 05:19:58;;;;;;;1.60;0.90;;;12.80;99.90;;;;;;5050257;28;20060;-42
2023/04/24 05:22:24;;;;;;;1.38;0.70;;;12.80;99.90;;;;;;5050989;28;20032;-42
2023/04/24 05:24:50;;;;;;;1.05;0.70;;;12.80;99.90;;;;;;5050948;28;20403;-45
2023/04/24 05:27:15;;;;;;;1.70;0.70;;;12.80;99.90;;;;;;5054639;28;20111;-44
2023/04/24 05:29:41;;;;;;;1.38;0.90;;;12.80;99.90;;;;;;5057594;28;20479;-43
2023/04/24 05:32:06;;;;;;;4.60;1.00;;;12.80;99.90;;;;;;5057562;28;20029;-45
2023/04/24 05:34:32;;;;;;;1.95;0.80;;;12.80;99.90;;;;;;5057659;28;20210;-44
2023/04/24 05:36:58;;;;;;;0.88;0.60;;;12.80;99.90;;;;;;5056999;28;20174;-45
2023/04/24 05:39:24;;;;;;;1.13;0.65;;;12.80;99.90;;;;;;5059570;28;20029;-44
2023/04/24 05:41:50;;;;;;;1.65;0.80;;;12.80;99.90;;;;;;5057487;28;20247;-44
2023/04/24 05:44:16;;;;;;;2.25;0.85;;;12.80;99.90;;;;;;5057965;28;20096;-44
2023/04/24 05:46:42;;;;;;;3.58;1.30;;;12.80;99.90;;;;;;5057066;28;20033;-41
2023/04/24 05:49:07;;;;;;;2.47;1.27;;;12.80;99.90;;;;;;5058522;28;20075;-43
2023/04/24 05:51:33;;;;;;;3.75;1.75;;;12.70;99.90;;;;;;5057474;28;20095;-45
2023/04/24 05:53:58;;;;;;;2.58;1.38;;;12.80;99.90;;;;;;5057384;28;20039;-44
2023/04/24 05:56:24;;;;;;;2.55;1.60;;;12.80;99.90;;;;;;5057098;28;20032;-44
2023/04/24 05:58:50;;;;;;;3.28;1.58;;;12.80;99.90;;;;;;5058385;28;20174;-43
2023/04/24 06:01:16;;;;;;;2.20;1.30;;;12.80;99.90;;;;;;5057392;28;20056;-45
2023/04/24 06:03:42;;;;;;;2.30;1.25;;;12.80;99.90;;;;;;5057535;28;20507;-41
2023/04/24 06:06:08;;;;;;;1.67;1.05;;;12.80;99.90;;;;;;5057102;28;20029;-43
2023/04/24 06:08:35;;;;;;;1.80;1.13;;;12.70;99.90;;;;;;5056279;28;20111;-43
2023/04/24 06:11:00;;;;;;;2.38;1.00;;;12.80;99.90;;;;;;5057234;28;20032;-41
2023/04/24 06:13:27;;;;;;;2.10;1.25;;;12.80;99.90;;;;;;5057454;28;20499;-43
2023/04/24 06:15:53;;;;;;;2.08;1.27;;;12.80;99.90;;;;;;5057263;28;20083;-44
2023/04/24 06:18:19;;;;;;;2.58;1.30;;;12.80;99.90;;;;;;5057477;28;20044;-43
2023/04/24 06:20:45;;;;;;;2.45;1.00;;;12.80;99.90;;;;;;5056841;28;20087;-43
2023/04/24 06:23:11;;;;;;;1.83;1.08;;;12.80;99.90;;;;;;5057159;28;20479;-44
2023/04/24 06:25:37;;;;;;;3.72;1.40;;;12.80;99.90;;;;;;5057002;28;20064;-43
2023/04/24 06:28:03;;;;;;;4.45;1.40;;;12.80;99.90;;;;;;5056904;28;20025;-43
2023/04/24 06:30:29;;;;;;;2.88;1.20;;;12.80;99.90;;;;;;5057157;28;20475;-43
2023/04/24 06:32:54;;;;;;;3.92;1.15;;;12.80;99.90;;;;;;5057163;28;20017;-43
2023/04/24 06:35:20;;;;;;;1.17;1.00;;;12.80;99.90;;;;;;5057103;28;20032;-45
2023/04/24 06:37:46;;;;;;;2.65;1.35;;;12.80;99.90;;;;;;5054657;28;20056;-43
2023/04/24 06:40:11;;;;;;;3.58;1.40;;;12.80;99.90;;;;;;5053548;28;20391;-43
2023/04/24 06:42:37;;;;;;;1.67;1.20;;;12.80;99.90;;;;;;5053755;28;20025;-42
2023/04/24 06:45:03;;;;;;;2.95;1.02;;;12.70;99.90;;;;;;5053787;28;20099;-43
2023/04/24 06:47:29;;;;;;;1.70;1.10;;;12.70;99.90;;;;;;5053199;28;20032;-45
2023/04/24 06:49:55;;;;;;;1.67;1.00;;;12.70;99.90;;;;;;5053585;28;20029;-43
2023/04/24 06:52:21;;;;;;;3.80;1.15;;;12.70;99.90;;;;;;5053910;28;20036;-44
2023/04/24 06:54:46;;;;;;;2.55;1.15;;;12.80;99.90;;;;;;5053784;28;20048;-43
2023/04/24 06:57:12;;;;;;;1.40;1.08;;;12.80;99.90;;;;;;5053302;28;20025;-42
2023/04/24 06:59:38;;;;;;;2.65;1.10;;;12.80;99.90;;;;;;5053683;28;20025;-43
2023/04/24 07:02:04;;;;;;;2.70;1.20;;;12.80;99.90;;;;;;5053267;28;20061;-43
2023/04/24 07:04:30;;;;;;;1.30;1.10;;;12.80;99.90;;;;;;5053178;28;20409;-43
2023/04/24 07:06:57;;;;;;;2.08;0.90;;;12.80;99.90;;;;;;5052573;28;20037;-43
2023/04/24 07:09:25;;;;;;;1.48;1.13;;;12.80;99.90;;;;;;5053286;28;20475;-42
2023/04/24 07:11:51;;;;;;;1.15;1.00;;;12.80;99.90;;;;;;5053461;28;20037;-39
2023/04/24 07:14:17;;;;;;;1.60;1.10;;;12.90;99.90;;;;;;5051850;28;20040;-43
2023/04/24 07:16:43;;;;;;;1.95;1.05;;;12.90;99.90;;;;;;5052577;28;20040;-43
2023/04/24 07:19:09;;;;;;;1.58;0.80;;;12.90;99.90;;;;;;5054022;28;20391;-43
2023/04/24 07:21:34;;;;;;;1.23;0.90;;;12.90;99.90;;;;;;5052996;28;20025;-43
2023/04/24 07:24:00;;;;;;;3.00;0.90;;;12.90;99.90;;;;;;5052864;28;20432;-43
2023/04/24 07:26:28;;;;;;;2.08;0.90;;;12.90;99.90;;;;;;5052322;28;20028;-43
2023/04/24 07:28:53;;;;;;;1.60;1.00;;;12.90;99.90;;;;;;5052563;28;20036;-44
2023/04/24 07:31:19;;;;;;;1.95;1.00;;;12.90;99.90;;;;;;5052743;28;20021;-40
2023/04/24 07:33:45;;;;;;;1.45;1.00;;;12.90;99.90;;;;;;5052709;28;20028;-43
2023/04/24 07:36:15;;;;;;;2.70;1.05;;;12.90;99.90;;;;;;5052107;28;20491;-43
2023/04/24 07:38:44;;;;;;;1.88;1.13;;;12.90;99.90;;;;;;5053104;28;20025;-40
2023/04/24 07:41:10;;;;;;;2.58;1.17;;;12.90;99.90;;;;;;5052988;28;20028;-43
2023/04/24 07:43:36;;;;;;;1.83;0.90;;;13.00;99.90;;;;;;5052842;28;20025;-43
2023/04/24 07:46:01;;;;;;;1.58;0.85;;;13.00;99.90;;;;;;5052175;28;20434;-42
2023/04/24 07:48:27;;;;;;;1.40;0.90;;;13.00;99.90;;;;;;5052590;28;20843;-43
2023/04/24 07:50:53;;;;;;;1.50;0.77;;;13.00;99.90;;;;;;5052522;28;20025;-43
2023/04/24 07:53:19;;;;;;;4.25;0.90;;;13.00;99.90;;;;;;5052579;28;20086;-41
2023/04/24 07:55:45;;;;;;;1.50;1.00;;;13.00;99.90;;;;;;5052239;28;20028;-43
2023/04/24 07:58:11;;;;;;;2.15;0.90;;;13.00;99.90;;;;;;5052539;28;20036;-44
2023/04/24 08:00:37;;;;;;;1.55;0.98;;;13.00;99.90;;;;;;5052189;28;20029;-43
2023/04/24 08:03:02;;;;;;;2.10;1.00;;;13.00;99.90;;;;;;5052021;28;20033;-44
2023/04/24 08:05:28;;;;;;;1.30;0.90;;;13.00;99.90;;;;;;5052231;28;20060;-42
2023/04/24 08:07:54;;;;;;;1.67;0.90;;;13.00;99.90;;;;;;5052054;28;20440;-43
2023/04/24 08:10:24;;;;;;;1.20;1.00;;;13.10;99.90;;;;;;5052329;28;20025;-40
2023/04/24 08:12:50;;;;;;;2.35;1.10;;;13.10;99.90;;;;;;5052298;28;20029;-40
2023/04/24 08:15:16;;;;;;;1.45;0.90;;;13.10;99.90;;;;;;5052362;28;20037;-41
2023/04/24 08:17:41;;;;;;;1.60;1.13;;;13.10;99.90;;;;;;5051312;28;20021;-40
2023/04/24 08:20:13;;;;;;;1.35;0.98;;;13.10;99.90;;;;;;5051770;28;20087;-43
2023/04/24 08:22:40;;;;;;;1.88;0.90;;;13.10;99.90;;;;;;5051871;28;20075;-43
2023/04/24 08:25:06;;;;;;;2.33;1.10;;;13.10;99.90;;;;;;5051985;28;20037;-43
2023/04/24 08:27:32;;;;;;;2.45;1.33;;;13.10;99.90;;;;;;5051239;28;20032;-45
2023/04/24 08:29:59;;;;;;;2.30;1.25;;;13.10;99.90;;;;;;5051684;28;20025;-44
2023/04/24 08:32:27;;;;;;;1.67;1.10;;;13.20;99.90;;;;;;5051616;28;20024;-39
2023/04/24 08:34:53;;;;;;;2.60;1.15;;;13.20;99.90;;;;;;5051535;28;20387;-43
2023/04/24 08:37:18;;;;;;;1.83;1.00;;;13.20;99.90;;;;;;5050945;28;20021;-41
2023/04/24 08:39:44;;;;;;;2.70;1.00;;;13.20;99.90;;;;;;5051621;28;20056;-43
2023/04/24 08:42:11;;;;;;;3.78;1.10;;;13.20;99.90;;;;;;5051746;28;20107;-42
2023/04/24 08:44:37;;;;;;;2.78;1.08;;;13.20;99.90;;;;;;5051465;28;20044;-41
2023/04/24 08:47:03;;;;;;;1.83;1.10;;;13.20;99.90;;;;;;5050722;28;20468;-43
2023/04/24 08:49:29;;;;;;;1.60;1.17;;;13.20;99.90;;;;;;5051619;28;20028;-43
2023/04/24 08:51:55;;;;;;;1.63;1.20;;;13.20;99.90;;;;;;5051367;28;20021;-39
2023/04/24 08:54:21;;;;;;;3.15;1.02;;;13.20;99.90;;;;;;5051296;28;20033;-43
2023/04/24 08:56:48;;;;;;;1.67;0.88;;;13.20;99.90;;;;;;5050560;28;20040;-43
2023/04/24 08:59:15;;;;;;;2.25;1.00;;;13.20;99.90;;;;;;5051317;28;20029;-39
2023/04/24 09:01:41;;;;;;;2.17;0.88;;;13.10;99.90;;;;;;5050291;28;20104;-43
2023/04/24 09:04:12;;;;;;;2.95;0.90;;;13.10;99.90;;;;;;5051119;28;20064;-43
2023/04/24 09:06:38;;;;;;;2.47;1.00;;;13.10;99.90;;;;;;5051003;28;20021;-40
2023/04/24 09:09:05;;;;;;;1.58;0.98;;;13.10;99.90;;;;;;5051271;28;20021;-41
2023/04/24 09:11:34;;;;;;;1.60;0.90;;;13.10;99.90;;;;;;5051267;28;20402;-46
2023/04/24 09:14:01;;;;;;;1.83;0.93;;;13.10;99.90;;;;;;5051196;28;20021;-44
2023/04/24 09:16:27;;;;;;;3.85;1.00;;;13.10;99.90;;;;;;5050433;28;20032;-43
2023/04/24 09:18:53;;;;;;;5.20;1.10;;;13.00;99.90;;;;;;5051073;28;20029;-44
2023/04/24 09:21:21;;;;;;;3.40;1.02;;;13.00;99.90;;;;;;5050899;28;20051;-44
2023/04/24 09:23:58;;;;;;;3.83;1.10;;;13.00;99.90;;;;;;5050881;28;20104;-44
2023/04/24 09:26:24;;;;;;;2.22;0.88;;;13.10;99.90;;;;;;5050247;28;20053;-44
2023/04/24 09:28:50;;;;;;;3.28;1.13;;;13.10;99.90;;;;;;5050800;28;20056;-45
2023/04/24 09:31:19;;;;;;;1.17;0.70;;;13.10;99.90;;;;;;5050919;28;20029;-42
2023/04/24 09:34:07;;;;;;;1.88;0.82;;;13.10;99.90;;;;;;5050854;28;20025;-44
2023/04/24 09:36:40;;;;;;;2.92;0.90;;;13.10;99.90;;;;;;5050347;28;20039;-44
2023/04/24 09:39:11;;;;;;;2.53;0.90;;;13.10;99.90;;;;;;5050697;28;20029;-44
2023/04/24 09:41:57;;;;;;;2.60;0.90;;;13.00;99.90;;;;;;5050973;28;20029;-44
2023/04/24 09:44:26;;;;;;;3.13;1.17;;;13.00;99.90;;;;;;5050436;28;20529;-44
2023/04/24 09:46:56;;;;;;;4.20;1.00;;;13.10;99.90;;;;;;5050017;28;20025;-44
2023/04/24 09:49:27;;;;;;;3.03;0.90;;;13.00;99.90;;;;;;5050646;28;20428;-43
2023/04/24 09:52:03;;;;;;;2.00;0.70;;;13.10;99.90;;;;;;5050997;28;20467;-44
2023/04/24 09:54:29;;;;;;;1.40;0.88;;;13.00;99.90;;;;;;5050632;28;20104;-44
2023/04/24 09:56:55;;;;;;;1.95;0.90;;;13.00;99.90;;;;;;5050016;28;20025;-44
2023/04/24 09:59:22;;;;;;;3.70;0.80;;;13.00;99.90;;;;;;5050768;28;20036;-44
2023/04/24 10:01:52;;;;;;;3.08;0.82;;;13.00;99.90;;;;;;5050427;28;20103;-46
2023/04/24 10:04:24;;;;;;;2.95;1.02;;;13.00;99.90;;;;;;5050432;28;20078;-43
2023/04/24 10:06:52;;;;;;;1.42;0.80;;;13.10;99.90;;;;;;5051101;28;20026;-44
2023/04/24 10:09:20;;;;;;;2.88;0.80;;;13.10;99.90;;;;;;5051375;28;20017;-44
2023/04/24 10:11:47;;;;;;;3.17;0.70;;;13.10;99.90;;;;;;5050506;28;20025;-41
2023/04/24 10:14:15;;;;;;;2.53;0.80;;;13.10;99.90;;;;;;5054012;28;20040;-46
2023/04/24 10:16:41;;;;;;;1.27;0.75;;;13.10;99.90;;;;;;5053551;28;20036;-44
2023/04/24 10:19:07;;;;;;;0.82;0.60;;;13.10;99.90;;;;;;5053155;28;20040;-44
2023/04/24 10:21:34;;;;;;;1.50;0.73;;;13.10;99.90;;;;;;5054263;28;20059;-46
2023/04/24 10:24:03;;;;;;;2.78;0.90;;;13.10;99.90;;;;;;5054185;28;20078;-44
2023/04/24 10:26:29;;;;;;;1.17;0.80;;;13.10;99.90;;;;;;5053421;28;20471;-46
2023/04/24 10:28:58;;;;;;;2.72;1.10;;;13.10;99.90;;;;;;5053896;28;20033;-43
2023/04/24 10:31:25;;;;;;;1.10;0.68;;;13.10;99.90;;;;;;5053885;28;20398;-43
2023/04/24 10:33:52;;;;;;;1.30;0.70;;;13.10;99.90;;;;;;5053746;28;20029;-44
2023/04/24 10:36:18;;;;;;;1.35;0.70;;;13.10;99.90;;;;;;5053414;28;20025;-46
2023/04/24 10:38:47;;;;;;;2.28;0.80;;;13.10;99.90;;;;;;5053739;28;20739;-44
2023/04/24 10:41:19;;;;;;;1.15;0.80;;;13.10;99.90;;;;;;5055039;28;20029;-46
2023/04/24 10:43:45;;;;;;;1.33;0.70;;;13.10;99.90;;;;;;5053729;28;20025;-43
2023/04/24 10:46:19;;;;;;;1.25;0.80;;;13.10;99.90;;;;;;5052930;28;20025;-43
2023/04/24 10:48:55;;;;;;;1.43;0.80;;;13.10;99.90;;;;;;5053689;28;20033;-45
2023/04/24 10:51:42;;;;;;;2.03;0.90;;;13.10;99.90;;;;;;5053638;28;20029;-43
2023/04/24 10:54:22;;;;;;;1.20;0.68;;;13.20;99.90;;;;;;5053524;28;20047;-44
2023/04/24 10:56:49;;;;;;;1.17;0.65;;;13.20;99.90;;;;;;5052872;28;20024;-45
2023/04/24 10:59:25;;;;;;;0.80;0.63;;;13.30;99.90;;;;;;5053453;28;20028;-46
2023/04/24 11:01:57;;;;;;;0.82;0.70;;;13.30;99.90;;;;;;5053389;28;20029;-44
2023/04/24 11:04:31;;;;;;;1.60;0.70;;;13.20;99.90;;;;;;5053588;28;20052;-44
2023/04/24 11:06:57;;;;;;;1.35;0.90;;;13.20;99.90;;;;;;5052631;28;20051;-44
2023/04/24 11:09:27;;;;;;;3.35;0.90;;;13.20;99.90;;;;;;5053252;28;20075;-44
2023/04/24 11:12:07;;;;;;;1.85;0.95;;;13.20;99.90;;;;;;5053684;28;20317;-44
2023/04/24 11:14:57;;;;;;;1.52;0.73;;;13.10;99.90;;;;;;5053617;28;20319;-44
2023/04/24 11:17:44;;;;;;;1.98;1.08;;;13.20;99.90;;;;;;5052716;28;20036;-44
2023/04/24 11:20:11;;;;;;;0.68;0.57;;;13.20;99.90;;;;;;5051821;28;20499;-46
2023/04/24 11:22:41;;;;;;;1.67;0.93;;;13.20;99.90;;;;;;5053123;28;20071;-44
2023/04/24 11:25:08;;;;;;;0.98;0.82;;;13.20;99.90;;;;;;5052583;28;20025;-43
2023/04/24 11:27:48;;;;;;;1.45;0.90;;;13.20;99.90;;;;;;5052185;28;20029;-44
2023/04/24 11:30:19;;;;;;;1.55;0.70;;;13.20;99.90;;;;;;5053344;28;20090;-46
2023/04/24 11:32:49;;;;;;;1.85;0.80;;;13.20;99.90;;;;;;5053459;28;20031;-45
2023/04/24 11:35:21;;;;;;;1.35;0.60;;;13.20;99.90;;;;;;5052841;28;20491;-44
2023/04/24 11:37:49;;;;;;;1.45;0.77;;;13.30;99.90;;;;;;5052085;28;20067;-44
2023/04/24 11:40:16;;;;;;;1.83;0.77;;;13.20;99.90;;;;;;5052823;28;20029;-45
2023/04/24 11:42:49;;;;;;;1.77;0.80;;;13.30;99.90;;;;;;5052668;28;20025;-46
2023/04/24 11:45:21;;;;;;;1.23;0.88;;;13.20;99.90;;;;;;5052672;28;20029;-45
2023/04/24 11:47:46;;;;;;;0.77;0.73;;;13.20;99.90;;;;;;5052034;28;20036;-44
2023/04/24 11:50:14;;;;;;;1.10;0.70;;;13.20;99.90;;;;;;5052366;28;20017;-45
2023/04/24 11:52:45;;;;;;;1.10;0.60;;;13.20;99.90;;;;;;5052512;28;20052;-46
2023/04/24 11:55:16;;;;;;;1.42;0.80;;;13.20;99.90;;;;;;5052428;28;20032;-46
2023/04/24 11:57:58;;;;;;;0.98;0.60;;;13.20;99.90;;;;;;5051900;28;20383;-43
2023/04/24 12:00:34;;;;;;;1.25;0.90;;;13.30;99.90;;;;;;5052176;28;20017;-44
2023/04/24 12:03:11;;;;;;;0.90;0.65;;;13.20;99.90;;;;;;5051971;28;20029;-46
2023/04/24 12:05:37;;;;;;;0.80;0.80;;;13.30;99.90;;;;;;5052090;28;20029;-46
2023/04/24 12:08:02;;;;;;;0.70;0.60;;;13.30;99.90;;;;;;5051970;28;20025;-43
2023/04/24 12:10:30;;;;;;;1.42;0.80;;;13.30;99.90;;;;;;5052130;28;20025;-46
2023/04/24 12:12:56;;;;;;;1.55;0.80;;;13.30;99.90;;;;;;5052119;28;20021;-43
2023/04/24 12:15:23;;;;;;;4.18;0.80;;;13.30;99.90;;;;;;5051674;28;20098;-43
2023/04/24 12:17:51;;;;;;;1.95;0.80;;;13.30;99.90;;;;;;5051414;28;20091;-45
2023/04/24 12:20:16;;;;;;;2.50;0.77;;;13.30;99.90;;;;;;5051895;28;20074;-44
2023/04/24 12:22:54;;;;;;;1.42;1.00;;;13.20;99.90;;;;;;5051938;28;20434;-44
2023/04/24 12:25:24;;;;;;;3.88;0.90;;;13.20;99.90;;;;;;5051697;28;20028;-46
2023/04/24 12:27:55;;;;;;;0.77;0.70;;;13.20;99.90;;;;;;5050968;28;20465;-46
2023/04/24 12:30:21;;;;;;;0.82;0.75;;;13.30;99.90;;;;;;5051836;28;20084;-44
2023/04/24 12:32:48;;;;;;;1.30;0.82;;;13.30;99.90;;;;;;5051697;28;20596;-44
2023/04/24 12:35:20;;;;;;;0.70;0.70;;;13.30;99.90;;;;;;5052036;28;20116;-44
2023/04/24 12:37:46;;;;;;;1.48;0.80;;;13.30;99.90;;;;;;5051017;28;20099;-44
2023/04/24 12:40:13;;;;;;;3.38;0.80;;;13.30;99.90;;;;;;5051495;28;20423;-46
2023/04/24 12:42:49;;;;;;;1.33;0.80;;;13.30;99.90;;;;;;5051657;28;20025;-44
2023/04/24 12:45:16;;;;;;;2.33;0.70;;;13.30;99.90;;;;;;5052630;28;20032;-45
2023/04/24 12:47:43;;;;;;;1.67;0.60;;;13.20;99.90;;;;;;5050923;28;20017;-46